sensor_id;sensor_type;location;lat;lon;timestamp;P1;durP1;ratioP1;P2;durP2;ratioP2
60478;SDS011;46321;48.398;11.754;2024-02-16T00:01:57;12.95;;;8.23;;
60478;SDS011;46321;48.398;11.754;2024-02-16T00:04:22;14.20;;;8.73;;
60478;SDS011;46321;48.398;11.754;2024-02-16T00:06:47;13.15;;;8.30;;
60478;SDS011;46321;48.398;11.754;2024-02-16T00:09:13;15.02;;;8.93;;
60478;SDS011;46321;48.398;11.754;2024-02-16T00:11:39;15.65;;;9.02;;
60478;SDS011;46321;48.398;11.754;2024-02-16T00:14:04;14.13;;;8.15;;
60478;SDS011;46321;48.398;11.754;2024-02-16T00:16:30;17.00;;;8.55;;
60478;SDS011;46321;48.398;11.754;2024-02-16T00:18:55;11.95;;;8.18;;
60478;SDS011;46321;48.398;11.754;2024-02-16T00:21:20;14.13;;;8.57;;
60478;SDS011;46321;48.398;11.754;2024-02-16T00:23:46;18.38;;;8.25;;
60478;SDS011;46321;48.398;11.754;2024-02-16T00:26:11;15.45;;;8.50;;
60478;SDS011;46321;48.398;11.754;2024-02-16T00:28:36;14.15;;;8.43;;
60478;SDS011;46321;48.398;11.754;2024-02-16T00:31:02;12.55;;;7.68;;
60478;SDS011;46321;48.398;11.754;2024-02-16T00:33:27;13.65;;;8.15;;
60478;SDS011;46321;48.398;11.754;2024-02-16T00:35:54;13.35;;;8.00;;
60478;SDS011;46321;48.398;11.754;2024-02-16T00:38:19;13.25;;;8.68;;
60478;SDS011;46321;48.398;11.754;2024-02-16T00:40:44;13.32;;;8.05;;
60478;SDS011;46321;48.398;11.754;2024-02-16T00:43:10;12.88;;;8.60;;
60478;SDS011;46321;48.398;11.754;2024-02-16T00:45:35;13.82;;;8.25;;
60478;SDS011;46321;48.398;11.754;2024-02-16T00:48:00;15.38;;;8.68;;
60478;SDS011;46321;48.398;11.754;2024-02-16T00:50:27;14.23;;;8.23;;
60478;SDS011;46321;48.398;11.754;2024-02-16T00:52:52;16.13;;;8.50;;
60478;SDS011;46321;48.398;11.754;2024-02-16T00:55:17;14.52;;;8.30;;
60478;SDS011;46321;48.398;11.754;2024-02-16T00:57:43;13.80;;;8.02;;
60478;SDS011;46321;48.398;11.754;2024-02-16T01:00:08;13.95;;;8.68;;
60478;SDS011;46321;48.398;11.754;2024-02-16T01:02:34;15.75;;;8.68;;
60478;SDS011;46321;48.398;11.754;2024-02-16T01:04:59;16.75;;;8.95;;
60478;SDS011;46321;48.398;11.754;2024-02-16T01:07:27;15.20;;;9.18;;
60478;SDS011;46321;48.398;11.754;2024-02-16T01:09:52;15.20;;;9.27;;
60478;SDS011;46321;48.398;11.754;2024-02-16T01:12:17;17.65;;;9.75;;
60478;SDS011;46321;48.398;11.754;2024-02-16T01:14:43;17.50;;;9.85;;
60478;SDS011;46321;48.398;11.754;2024-02-16T01:17:08;14.27;;;8.95;;
60478;SDS011;46321;48.398;11.754;2024-02-16T01:19:34;14.45;;;9.25;;
60478;SDS011;46321;48.398;11.754;2024-02-16T01:21:59;13.15;;;8.82;;
60478;SDS011;46321;48.398;11.754;2024-02-16T01:24:25;13.55;;;8.93;;
60478;SDS011;46321;48.398;11.754;2024-02-16T01:26:51;13.88;;;8.65;;
60478;SDS011;46321;48.398;11.754;2024-02-16T01:29:16;14.93;;;9.40;;
60478;SDS011;46321;48.398;11.754;2024-02-16T01:31:41;17.52;;;9.65;;
60478;SDS011;46321;48.398;11.754;2024-02-16T01:34:06;16.63;;;10.15;;
60478;SDS011;46321;48.398;11.754;2024-02-16T01:36:32;14.93;;;9.50;;
60478;SDS011;46321;48.398;11.754;2024-02-16T01:38:57;15.90;;;9.60;;
60478;SDS011;46321;48.398;11.754;2024-02-16T01:41:22;16.48;;;9.38;;
60478;SDS011;46321;48.398;11.754;2024-02-16T01:43:47;14.85;;;9.05;;
60478;SDS011;46321;48.398;11.754;2024-02-16T01:46:13;17.77;;;9.38;;
60478;SDS011;46321;48.398;11.754;2024-02-16T01:48:38;17.63;;;10.50;;
60478;SDS011;46321;48.398;11.754;2024-02-16T01:51:07;20.23;;;10.93;;
60478;SDS011;46321;48.398;11.754;2024-02-16T01:53:34;18.40;;;11.07;;
60478;SDS011;46321;48.398;11.754;2024-02-16T01:56:01;17.98;;;10.38;;
60478;SDS011;46321;48.398;11.754;2024-02-16T01:58:26;18.83;;;10.82;;
60478;SDS011;46321;48.398;11.754;2024-02-16T02:00:53;17.90;;;10.85;;
60478;SDS011;46321;48.398;11.754;2024-02-16T02:03:18;17.23;;;10.48;;
60478;SDS011;46321;48.398;11.754;2024-02-16T02:05:46;17.30;;;10.75;;
60478;SDS011;46321;48.398;11.754;2024-02-16T02:08:12;19.77;;;11.27;;
60478;SDS011;46321;48.398;11.754;2024-02-16T02:10:38;21.20;;;11.77;;
60478;SDS011;46321;48.398;11.754;2024-02-16T02:13:04;17.95;;;11.00;;
60478;SDS011;46321;48.398;11.754;2024-02-16T02:15:29;19.67;;;11.02;;
60478;SDS011;46321;48.398;11.754;2024-02-16T02:17:54;19.38;;;11.07;;
60478;SDS011;46321;48.398;11.754;2024-02-16T02:20:19;19.45;;;11.50;;
60478;SDS011;46321;48.398;11.754;2024-02-16T02:22:45;19.23;;;11.40;;
60478;SDS011;46321;48.398;11.754;2024-02-16T02:25:10;18.13;;;10.82;;
60478;SDS011;46321;48.398;11.754;2024-02-16T02:27:36;17.90;;;11.80;;
60478;SDS011;46321;48.398;11.754;2024-02-16T02:30:02;19.23;;;11.48;;
60478;SDS011;46321;48.398;11.754;2024-02-16T02:32:27;17.42;;;10.85;;
60478;SDS011;46321;48.398;11.754;2024-02-16T02:34:53;18.48;;;10.63;;
60478;SDS011;46321;48.398;11.754;2024-02-16T02:37:19;18.15;;;10.52;;
60478;SDS011;46321;48.398;11.754;2024-02-16T02:39:44;19.83;;;11.40;;
60478;SDS011;46321;48.398;11.754;2024-02-16T02:42:09;19.80;;;11.95;;
60478;SDS011;46321;48.398;11.754;2024-02-16T02:44:35;20.45;;;11.25;;
60478;SDS011;46321;48.398;11.754;2024-02-16T02:47:00;19.55;;;11.32;;
60478;SDS011;46321;48.398;11.754;2024-02-16T02:49:25;19.63;;;11.65;;
60478;SDS011;46321;48.398;11.754;2024-02-16T02:51:51;18.02;;;10.80;;
60478;SDS011;46321;48.398;11.754;2024-02-16T02:54:16;17.42;;;11.15;;
60478;SDS011;46321;48.398;11.754;2024-02-16T02:56:41;17.42;;;10.55;;
60478;SDS011;46321;48.398;11.754;2024-02-16T02:59:06;21.67;;;11.88;;
60478;SDS011;46321;48.398;11.754;2024-02-16T03:01:33;19.15;;;10.90;;
60478;SDS011;46321;48.398;11.754;2024-02-16T03:03:59;22.20;;;11.23;;
60478;SDS011;46321;48.398;11.754;2024-02-16T03:06:25;20.60;;;11.68;;
60478;SDS011;46321;48.398;11.754;2024-02-16T03:08:51;21.38;;;11.27;;
60478;SDS011;46321;48.398;11.754;2024-02-16T03:11:16;20.05;;;11.75;;
60478;SDS011;46321;48.398;11.754;2024-02-16T03:13:42;19.38;;;11.00;;
60478;SDS011;46321;48.398;11.754;2024-02-16T03:16:07;16.08;;;10.07;;
60478;SDS011;46321;48.398;11.754;2024-02-16T03:18:33;20.55;;;11.13;;
60478;SDS011;46321;48.398;11.754;2024-02-16T03:21:02;17.73;;;11.15;;
60478;SDS011;46321;48.398;11.754;2024-02-16T03:23:27;23.52;;;11.73;;
60478;SDS011;46321;48.398;11.754;2024-02-16T03:25:53;22.48;;;11.85;;
60478;SDS011;46321;48.398;11.754;2024-02-16T03:28:18;22.50;;;12.43;;
60478;SDS011;46321;48.398;11.754;2024-02-16T03:30:45;19.40;;;11.50;;
60478;SDS011;46321;48.398;11.754;2024-02-16T03:33:11;19.60;;;11.55;;
60478;SDS011;46321;48.398;11.754;2024-02-16T03:35:36;20.42;;;11.48;;
60478;SDS011;46321;48.398;11.754;2024-02-16T03:38:02;18.60;;;11.38;;
60478;SDS011;46321;48.398;11.754;2024-02-16T03:40:28;24.83;;;12.82;;
60478;SDS011;46321;48.398;11.754;2024-02-16T03:42:54;20.90;;;12.45;;
60478;SDS011;46321;48.398;11.754;2024-02-16T03:45:19;29.27;;;13.55;;
60478;SDS011;46321;48.398;11.754;2024-02-16T03:47:46;24.23;;;13.05;;
60478;SDS011;46321;48.398;11.754;2024-02-16T03:50:13;24.35;;;12.15;;
60478;SDS011;46321;48.398;11.754;2024-02-16T03:52:39;23.10;;;12.57;;
60478;SDS011;46321;48.398;11.754;2024-02-16T03:55:05;21.35;;;11.88;;
60478;SDS011;46321;48.398;11.754;2024-02-16T03:57:31;24.70;;;12.73;;
60478;SDS011;46321;48.398;11.754;2024-02-16T03:59:56;22.92;;;12.70;;
60478;SDS011;46321;48.398;11.754;2024-02-16T04:02:21;22.80;;;12.00;;
60478;SDS011;46321;48.398;11.754;2024-02-16T04:04:47;23.42;;;12.77;;
60478;SDS011;46321;48.398;11.754;2024-02-16T04:07:12;54.75;;;30.77;;
60478;SDS011;46321;48.398;11.754;2024-02-16T04:09:37;43.33;;;22.83;;
60478;SDS011;46321;48.398;11.754;2024-02-16T04:12:03;34.85;;;19.00;;
60478;SDS011;46321;48.398;11.754;2024-02-16T04:14:28;21.95;;;12.52;;
60478;SDS011;46321;48.398;11.754;2024-02-16T04:16:55;21.88;;;12.05;;
60478;SDS011;46321;48.398;11.754;2024-02-16T04:19:22;20.70;;;11.85;;
60478;SDS011;46321;48.398;11.754;2024-02-16T04:21:48;18.48;;;11.68;;
60478;SDS011;46321;48.398;11.754;2024-02-16T04:24:13;19.13;;;11.70;;
60478;SDS011;46321;48.398;11.754;2024-02-16T04:26:38;19.55;;;11.38;;
60478;SDS011;46321;48.398;11.754;2024-02-16T04:29:03;19.85;;;11.32;;
60478;SDS011;46321;48.398;11.754;2024-02-16T04:31:31;18.25;;;11.05;;
60478;SDS011;46321;48.398;11.754;2024-02-16T04:33:57;18.08;;;11.07;;
60478;SDS011;46321;48.398;11.754;2024-02-16T04:36:22;19.73;;;11.18;;
60478;SDS011;46321;48.398;11.754;2024-02-16T04:38:47;20.10;;;12.00;;
60478;SDS011;46321;48.398;11.754;2024-02-16T04:41:12;21.02;;;11.60;;
60478;SDS011;46321;48.398;11.754;2024-02-16T04:43:38;20.60;;;11.65;;
60478;SDS011;46321;48.398;11.754;2024-02-16T04:46:04;22.70;;;11.70;;
60478;SDS011;46321;48.398;11.754;2024-02-16T04:48:29;24.73;;;12.90;;
60478;SDS011;46321;48.398;11.754;2024-02-16T04:50:56;23.35;;;12.27;;
60478;SDS011;46321;48.398;11.754;2024-02-16T04:53:21;21.88;;;12.80;;
60478;SDS011;46321;48.398;11.754;2024-02-16T04:55:46;23.55;;;12.77;;
60478;SDS011;46321;48.398;11.754;2024-02-16T04:58:12;23.88;;;13.82;;
60478;SDS011;46321;48.398;11.754;2024-02-16T05:00:37;22.75;;;13.50;;
60478;SDS011;46321;48.398;11.754;2024-02-16T05:03:03;27.48;;;13.35;;
60478;SDS011;46321;48.398;11.754;2024-02-16T05:05:29;24.50;;;13.18;;
60478;SDS011;46321;48.398;11.754;2024-02-16T05:07:55;21.70;;;12.60;;
60478;SDS011;46321;48.398;11.754;2024-02-16T05:10:21;21.67;;;12.10;;
60478;SDS011;46321;48.398;11.754;2024-02-16T05:12:46;23.60;;;12.93;;
60478;SDS011;46321;48.398;11.754;2024-02-16T05:15:11;21.38;;;12.23;;
60478;SDS011;46321;48.398;11.754;2024-02-16T05:17:39;21.95;;;11.75;;
60478;SDS011;46321;48.398;11.754;2024-02-16T05:20:11;19.83;;;12.15;;
60478;SDS011;46321;48.398;11.754;2024-02-16T05:22:43;19.45;;;11.80;;
60478;SDS011;46321;48.398;11.754;2024-02-16T05:25:15;21.48;;;12.25;;
60478;SDS011;46321;48.398;11.754;2024-02-16T05:27:44;18.30;;;11.40;;
60478;SDS011;46321;48.398;11.754;2024-02-16T05:30:10;20.75;;;12.95;;
60478;SDS011;46321;48.398;11.754;2024-02-16T05:32:38;19.88;;;11.73;;
60478;SDS011;46321;48.398;11.754;2024-02-16T05:35:03;25.35;;;12.77;;
60478;SDS011;46321;48.398;11.754;2024-02-16T05:37:36;22.63;;;12.75;;
60478;SDS011;46321;48.398;11.754;2024-02-16T05:40:08;24.48;;;12.63;;
60478;SDS011;46321;48.398;11.754;2024-02-16T05:42:43;22.77;;;13.13;;
60478;SDS011;46321;48.398;11.754;2024-02-16T05:45:09;23.67;;;13.45;;
60478;SDS011;46321;48.398;11.754;2024-02-16T05:47:36;25.13;;;13.73;;
60478;SDS011;46321;48.398;11.754;2024-02-16T05:50:03;24.30;;;13.18;;
60478;SDS011;46321;48.398;11.754;2024-02-16T05:52:29;22.48;;;13.18;;
60478;SDS011;46321;48.398;11.754;2024-02-16T05:54:55;23.65;;;12.98;;
60478;SDS011;46321;48.398;11.754;2024-02-16T05:57:21;26.60;;;12.82;;
60478;SDS011;46321;48.398;11.754;2024-02-16T05:59:46;22.95;;;13.25;;
60478;SDS011;46321;48.398;11.754;2024-02-16T06:02:11;21.85;;;13.15;;
60478;SDS011;46321;48.398;11.754;2024-02-16T06:04:37;25.25;;;13.45;;
60478;SDS011;46321;48.398;11.754;2024-02-16T06:07:04;25.83;;;13.38;;
60478;SDS011;46321;48.398;11.754;2024-02-16T06:09:30;20.60;;;12.90;;
60478;SDS011;46321;48.398;11.754;2024-02-16T06:12:00;24.15;;;13.35;;
60478;SDS011;46321;48.398;11.754;2024-02-16T06:14:28;26.58;;;13.77;;
60478;SDS011;46321;48.398;11.754;2024-02-16T06:17:02;27.50;;;13.85;;
60478;SDS011;46321;48.398;11.754;2024-02-16T06:19:28;24.10;;;13.57;;
60478;SDS011;46321;48.398;11.754;2024-02-16T06:21:54;23.98;;;13.38;;
60478;SDS011;46321;48.398;11.754;2024-02-16T06:24:20;26.23;;;14.07;;
60478;SDS011;46321;48.398;11.754;2024-02-16T06:26:49;24.80;;;14.18;;
60478;SDS011;46321;48.398;11.754;2024-02-16T06:29:16;25.88;;;13.85;;
60478;SDS011;46321;48.398;11.754;2024-02-16T06:31:41;23.20;;;14.05;;
60478;SDS011;46321;48.398;11.754;2024-02-16T06:34:06;25.70;;;14.45;;
60478;SDS011;46321;48.398;11.754;2024-02-16T06:36:33;24.70;;;13.63;;
60478;SDS011;46321;48.398;11.754;2024-02-16T06:38:58;27.23;;;14.77;;
60478;SDS011;46321;48.398;11.754;2024-02-16T06:41:23;26.30;;;14.77;;
60478;SDS011;46321;48.398;11.754;2024-02-16T06:43:49;23.70;;;14.05;;
60478;SDS011;46321;48.398;11.754;2024-02-16T06:46:14;23.90;;;13.73;;
60478;SDS011;46321;48.398;11.754;2024-02-16T06:48:39;25.52;;;13.30;;
60478;SDS011;46321;48.398;11.754;2024-02-16T06:51:04;25.65;;;13.95;;
60478;SDS011;46321;48.398;11.754;2024-02-16T06:53:30;24.55;;;13.45;;
60478;SDS011;46321;48.398;11.754;2024-02-16T06:55:55;20.92;;;13.25;;
60478;SDS011;46321;48.398;11.754;2024-02-16T06:58:20;25.23;;;13.88;;
60478;SDS011;46321;48.398;11.754;2024-02-16T07:00:45;22.10;;;13.25;;
60478;SDS011;46321;48.398;11.754;2024-02-16T07:03:11;23.85;;;13.07;;
60478;SDS011;46321;48.398;11.754;2024-02-16T07:05:37;23.08;;;13.18;;
60478;SDS011;46321;48.398;11.754;2024-02-16T07:08:02;22.67;;;12.88;;
60478;SDS011;46321;48.398;11.754;2024-02-16T07:10:29;22.23;;;12.65;;
60478;SDS011;46321;48.398;11.754;2024-02-16T07:12:54;21.35;;;13.13;;
60478;SDS011;46321;48.398;11.754;2024-02-16T07:15:19;42.20;;;23.52;;
60478;SDS011;46321;48.398;11.754;2024-02-16T07:17:45;24.00;;;13.60;;
60478;SDS011;46321;48.398;11.754;2024-02-16T07:20:10;20.80;;;12.10;;
60478;SDS011;46321;48.398;11.754;2024-02-16T07:22:36;20.15;;;12.40;;
60478;SDS011;46321;48.398;11.754;2024-02-16T07:25:01;19.20;;;11.93;;
60478;SDS011;46321;48.398;11.754;2024-02-16T07:27:28;21.38;;;11.57;;
60478;SDS011;46321;48.398;11.754;2024-02-16T07:29:53;19.10;;;11.50;;
60478;SDS011;46321;48.398;11.754;2024-02-16T07:32:18;18.95;;;12.23;;
60478;SDS011;46321;48.398;11.754;2024-02-16T07:34:47;22.10;;;13.30;;
60478;SDS011;46321;48.398;11.754;2024-02-16T07:37:12;25.30;;;13.98;;
60478;SDS011;46321;48.398;11.754;2024-02-16T07:39:38;23.20;;;12.80;;
60478;SDS011;46321;48.398;11.754;2024-02-16T07:42:03;21.55;;;12.57;;
60478;SDS011;46321;48.398;11.754;2024-02-16T07:44:29;20.55;;;12.57;;
60478;SDS011;46321;48.398;11.754;2024-02-16T07:46:54;21.08;;;12.45;;
60478;SDS011;46321;48.398;11.754;2024-02-16T07:49:19;18.83;;;12.20;;
60478;SDS011;46321;48.398;11.754;2024-02-16T07:51:44;15.52;;;10.82;;
60478;SDS011;46321;48.398;11.754;2024-02-16T07:54:09;19.92;;;11.15;;
60478;SDS011;46321;48.398;11.754;2024-02-16T07:56:35;16.20;;;10.45;;
60478;SDS011;46321;48.398;11.754;2024-02-16T07:59:00;16.50;;;10.35;;
60478;SDS011;46321;48.398;11.754;2024-02-16T08:01:25;24.27;;;16.60;;
60478;SDS011;46321;48.398;11.754;2024-02-16T08:03:51;35.35;;;19.58;;
60478;SDS011;46321;48.398;11.754;2024-02-16T08:06:16;13.73;;;9.63;;
60478;SDS011;46321;48.398;11.754;2024-02-16T08:08:46;13.23;;;9.20;;
60478;SDS011;46321;48.398;11.754;2024-02-16T08:11:12;11.60;;;8.93;;
60478;SDS011;46321;48.398;11.754;2024-02-16T08:13:37;11.63;;;7.70;;
60478;SDS011;46321;48.398;11.754;2024-02-16T08:16:02;11.15;;;8.05;;
60478;SDS011;46321;48.398;11.754;2024-02-16T08:18:31;11.07;;;7.95;;
60478;SDS011;46321;48.398;11.754;2024-02-16T08:20:57;11.20;;;8.43;;
60478;SDS011;46321;48.398;11.754;2024-02-16T08:23:22;18.50;;;9.07;;
60478;SDS011;46321;48.398;11.754;2024-02-16T08:25:47;14.68;;;8.65;;
60478;SDS011;46321;48.398;11.754;2024-02-16T08:28:13;10.63;;;7.80;;
60478;SDS011;46321;48.398;11.754;2024-02-16T08:30:38;13.60;;;8.73;;
60478;SDS011;46321;48.398;11.754;2024-02-16T08:33:06;8.57;;;7.00;;
60478;SDS011;46321;48.398;11.754;2024-02-16T08:35:32;10.73;;;6.75;;
60478;SDS011;46321;48.398;11.754;2024-02-16T08:37:57;8.10;;;6.27;;
60478;SDS011;46321;48.398;11.754;2024-02-16T08:40:22;9.13;;;7.07;;
60478;SDS011;46321;48.398;11.754;2024-02-16T08:42:48;13.98;;;10.35;;
60478;SDS011;46321;48.398;11.754;2024-02-16T08:45:14;9.45;;;7.18;;
60478;SDS011;46321;48.398;11.754;2024-02-16T08:47:42;10.60;;;7.97;;
60478;SDS011;46321;48.398;11.754;2024-02-16T08:50:08;9.95;;;7.20;;
60478;SDS011;46321;48.398;11.754;2024-02-16T08:52:33;8.30;;;5.70;;
60478;SDS011;46321;48.398;11.754;2024-02-16T08:54:59;7.43;;;5.93;;
60478;SDS011;46321;48.398;11.754;2024-02-16T08:57:24;7.47;;;5.87;;
60478;SDS011;46321;48.398;11.754;2024-02-16T08:59:49;7.50;;;6.13;;
60478;SDS011;46321;48.398;11.754;2024-02-16T09:02:14;8.73;;;6.50;;
60478;SDS011;46321;48.398;11.754;2024-02-16T09:04:40;7.27;;;5.90;;
60478;SDS011;46321;48.398;11.754;2024-02-16T09:07:05;8.93;;;6.50;;
60478;SDS011;46321;48.398;11.754;2024-02-16T09:09:30;11.53;;;6.43;;
60478;SDS011;46321;48.398;11.754;2024-02-16T09:11:56;7.40;;;5.80;;
60478;SDS011;46321;48.398;11.754;2024-02-16T09:14:22;8.77;;;5.80;;
60478;SDS011;46321;48.398;11.754;2024-02-16T09:16:50;6.82;;;5.72;;
60478;SDS011;46321;48.398;11.754;2024-02-16T09:19:18;6.32;;;5.20;;
60478;SDS011;46321;48.398;11.754;2024-02-16T09:21:44;6.20;;;5.60;;
60478;SDS011;46321;48.398;11.754;2024-02-16T09:24:10;8.85;;;5.85;;
60478;SDS011;46321;48.398;11.754;2024-02-16T09:26:39;6.03;;;5.18;;
60478;SDS011;46321;48.398;11.754;2024-02-16T09:29:04;7.27;;;5.50;;
60478;SDS011;46321;48.398;11.754;2024-02-16T09:31:31;6.15;;;5.22;;
60478;SDS011;46321;48.398;11.754;2024-02-16T09:33:56;4.90;;;4.40;;
60478;SDS011;46321;48.398;11.754;2024-02-16T09:36:21;8.57;;;5.07;;
60478;SDS011;46321;48.398;11.754;2024-02-16T09:38:48;5.22;;;4.70;;
60478;SDS011;46321;48.398;11.754;2024-02-16T09:41:13;7.90;;;5.65;;
60478;SDS011;46321;48.398;11.754;2024-02-16T09:43:40;7.13;;;5.97;;
60478;SDS011;46321;48.398;11.754;2024-02-16T09:46:06;8.73;;;5.03;;
60478;SDS011;46321;48.398;11.754;2024-02-16T09:48:33;5.85;;;4.68;;
60478;SDS011;46321;48.398;11.754;2024-02-16T09:50:59;5.55;;;4.80;;
60478;SDS011;46321;48.398;11.754;2024-02-16T09:53:26;7.57;;;6.78;;
60478;SDS011;46321;48.398;11.754;2024-02-16T09:55:53;11.82;;;9.07;;
60478;SDS011;46321;48.398;11.754;2024-02-16T09:58:18;25.40;;;16.08;;
60478;SDS011;46321;48.398;11.754;2024-02-16T10:00:47;7.20;;;5.50;;
60478;SDS011;46321;48.398;11.754;2024-02-16T10:05:52;5.43;;;4.55;;
60478;SDS011;46321;48.398;11.754;2024-02-16T10:08:28;7.53;;;5.25;;
60478;SDS011;46321;48.398;11.754;2024-02-16T10:11:00;6.57;;;5.13;;
60478;SDS011;46321;48.398;11.754;2024-02-16T10:13:29;6.47;;;5.70;;
60478;SDS011;46321;48.398;11.754;2024-02-16T10:16:08;6.72;;;4.93;;
60478;SDS011;46321;48.398;11.754;2024-02-16T10:18:36;6.85;;;5.28;;
60478;SDS011;46321;48.398;11.754;2024-02-16T10:21:02;6.10;;;5.25;;
60478;SDS011;46321;48.398;11.754;2024-02-16T10:23:28;7.43;;;5.40;;
60478;SDS011;46321;48.398;11.754;2024-02-16T10:25:54;7.20;;;5.07;;
60478;SDS011;46321;48.398;11.754;2024-02-16T10:28:19;5.65;;;5.05;;
60478;SDS011;46321;48.398;11.754;2024-02-16T10:30:46;5.70;;;5.07;;
60478;SDS011;46321;48.398;11.754;2024-02-16T10:33:14;7.60;;;5.50;;
60478;SDS011;46321;48.398;11.754;2024-02-16T10:35:39;6.63;;;4.50;;
60478;SDS011;46321;48.398;11.754;2024-02-16T10:38:06;7.05;;;5.22;;
60478;SDS011;46321;48.398;11.754;2024-02-16T10:40:39;9.25;;;5.20;;
60478;SDS011;46321;48.398;11.754;2024-02-16T10:43:05;6.65;;;4.45;;
60478;SDS011;46321;48.398;11.754;2024-02-16T10:45:35;6.63;;;4.72;;
60478;SDS011;46321;48.398;11.754;2024-02-16T10:48:02;6.43;;;5.10;;
60478;SDS011;46321;48.398;11.754;2024-02-16T10:50:29;5.80;;;4.65;;
60478;SDS011;46321;48.398;11.754;2024-02-16T10:52:55;6.35;;;4.70;;
60478;SDS011;46321;48.398;11.754;2024-02-16T10:55:23;7.00;;;4.95;;
60478;SDS011;46321;48.398;11.754;2024-02-16T10:57:50;6.43;;;4.93;;
60478;SDS011;46321;48.398;11.754;2024-02-16T11:00:17;5.88;;;4.50;;
60478;SDS011;46321;48.398;11.754;2024-02-16T11:02:57;6.38;;;4.80;;
60478;SDS011;46321;48.398;11.754;2024-02-16T11:05:35;6.13;;;4.35;;
60478;SDS011;46321;48.398;11.754;2024-02-16T11:08:11;8.65;;;4.10;;
60478;SDS011;46321;48.398;11.754;2024-02-16T11:10:38;6.28;;;4.03;;
60478;SDS011;46321;48.398;11.754;2024-02-16T11:13:03;4.38;;;3.85;;
60478;SDS011;46321;48.398;11.754;2024-02-16T11:15:32;7.15;;;4.43;;
60478;SDS011;46321;48.398;11.754;2024-02-16T11:18:03;5.97;;;4.32;;
60478;SDS011;46321;48.398;11.754;2024-02-16T11:20:35;4.78;;;4.03;;
60478;SDS011;46321;48.398;11.754;2024-02-16T11:23:06;5.10;;;4.32;;
60478;SDS011;46321;48.398;11.754;2024-02-16T11:25:33;4.25;;;3.20;;
60478;SDS011;46321;48.398;11.754;2024-02-16T11:28:00;4.50;;;3.13;;
60478;SDS011;46321;48.398;11.754;2024-02-16T11:30:27;5.03;;;2.90;;
60478;SDS011;46321;48.398;11.754;2024-02-16T11:32:52;4.37;;;2.90;;
60478;SDS011;46321;48.398;11.754;2024-02-16T11:35:18;5.37;;;2.53;;
60478;SDS011;46321;48.398;11.754;2024-02-16T11:37:43;2.83;;;2.30;;
60478;SDS011;46321;48.398;11.754;2024-02-16T11:40:13;2.35;;;1.95;;
60478;SDS011;46321;48.398;11.754;2024-02-16T11:42:39;2.67;;;2.13;;
60478;SDS011;46321;48.398;11.754;2024-02-16T11:45:04;3.08;;;2.45;;
60478;SDS011;46321;48.398;11.754;2024-02-16T11:47:31;3.92;;;2.53;;
60478;SDS011;46321;48.398;11.754;2024-02-16T11:50:03;3.35;;;2.65;;
60478;SDS011;46321;48.398;11.754;2024-02-16T11:52:30;4.50;;;2.85;;
60478;SDS011;46321;48.398;11.754;2024-02-16T11:54:56;3.67;;;3.00;;
60478;SDS011;46321;48.398;11.754;2024-02-16T11:57:22;6.32;;;2.95;;
60478;SDS011;46321;48.398;11.754;2024-02-16T11:59:48;4.78;;;3.50;;
60478;SDS011;46321;48.398;11.754;2024-02-16T12:02:17;4.22;;;3.10;;
60478;SDS011;46321;48.398;11.754;2024-02-16T12:04:47;4.25;;;2.97;;
60478;SDS011;46321;48.398;11.754;2024-02-16T12:07:12;5.20;;;2.80;;
60478;SDS011;46321;48.398;11.754;2024-02-16T12:09:39;4.00;;;3.20;;
60478;SDS011;46321;48.398;11.754;2024-02-16T12:12:04;3.88;;;2.50;;
60478;SDS011;46321;48.398;11.754;2024-02-16T12:14:34;7.13;;;2.88;;
60478;SDS011;46321;48.398;11.754;2024-02-16T12:16:59;6.78;;;2.80;;
60478;SDS011;46321;48.398;11.754;2024-02-16T12:19:25;4.47;;;2.83;;
60478;SDS011;46321;48.398;11.754;2024-02-16T12:21:54;4.15;;;3.28;;
60478;SDS011;46321;48.398;11.754;2024-02-16T12:24:23;7.38;;;5.35;;
60478;SDS011;46321;48.398;11.754;2024-02-16T12:26:49;7.00;;;3.40;;
60478;SDS011;46321;48.398;11.754;2024-02-16T12:29:15;4.97;;;2.88;;
60478;SDS011;46321;48.398;11.754;2024-02-16T12:31:41;3.63;;;2.60;;
60478;SDS011;46321;48.398;11.754;2024-02-16T12:34:08;5.28;;;3.30;;
60478;SDS011;46321;48.398;11.754;2024-02-16T12:36:34;4.65;;;3.30;;
60478;SDS011;46321;48.398;11.754;2024-02-16T12:39:00;5.22;;;3.63;;
60478;SDS011;46321;48.398;11.754;2024-02-16T12:41:28;4.82;;;3.92;;
60478;SDS011;46321;48.398;11.754;2024-02-16T12:43:54;5.43;;;4.07;;
60478;SDS011;46321;48.398;11.754;2024-02-16T12:46:19;5.43;;;3.33;;
60478;SDS011;46321;48.398;11.754;2024-02-16T12:48:44;5.23;;;3.57;;
60478;SDS011;46321;48.398;11.754;2024-02-16T12:51:09;4.73;;;3.27;;
60478;SDS011;46321;48.398;11.754;2024-02-16T12:53:36;6.57;;;3.67;;
60478;SDS011;46321;48.398;11.754;2024-02-16T12:56:06;5.10;;;3.83;;
60478;SDS011;46321;48.398;11.754;2024-02-16T12:58:33;5.20;;;3.08;;
60478;SDS011;46321;48.398;11.754;2024-02-16T13:00:58;5.85;;;4.30;;
60478;SDS011;46321;48.398;11.754;2024-02-16T13:03:23;7.00;;;3.73;;
60478;SDS011;46321;48.398;11.754;2024-02-16T13:05:49;3.77;;;3.00;;
60478;SDS011;46321;48.398;11.754;2024-02-16T13:08:14;6.07;;;3.50;;
60478;SDS011;46321;48.398;11.754;2024-02-16T13:10:40;5.20;;;3.13;;
60478;SDS011;46321;48.398;11.754;2024-02-16T13:13:05;4.50;;;3.15;;
60478;SDS011;46321;48.398;11.754;2024-02-16T13:15:31;4.72;;;3.15;;
60478;SDS011;46321;48.398;11.754;2024-02-16T13:17:57;3.78;;;3.00;;
60478;SDS011;46321;48.398;11.754;2024-02-16T13:20:22;5.55;;;3.95;;
60478;SDS011;46321;48.398;11.754;2024-02-16T13:22:48;4.90;;;3.67;;
60478;SDS011;46321;48.398;11.754;2024-02-16T13:25:13;5.13;;;4.07;;
60478;SDS011;46321;48.398;11.754;2024-02-16T13:27:38;5.97;;;3.72;;
60478;SDS011;46321;48.398;11.754;2024-02-16T13:30:04;5.63;;;3.77;;
60478;SDS011;46321;48.398;11.754;2024-02-16T13:32:31;12.70;;;11.40;;
60478;SDS011;46321;48.398;11.754;2024-02-16T13:34:57;4.53;;;3.60;;
60478;SDS011;46321;48.398;11.754;2024-02-16T13:37:24;10.50;;;6.55;;
60478;SDS011;46321;48.398;11.754;2024-02-16T13:39:49;5.90;;;4.17;;
60478;SDS011;46321;48.398;11.754;2024-02-16T13:42:14;4.43;;;3.13;;
60478;SDS011;46321;48.398;11.754;2024-02-16T13:44:40;5.65;;;3.30;;
60478;SDS011;46321;48.398;11.754;2024-02-16T13:47:05;4.00;;;3.03;;
60478;SDS011;46321;48.398;11.754;2024-02-16T13:49:31;5.07;;;3.33;;
60478;SDS011;46321;48.398;11.754;2024-02-16T13:51:56;5.20;;;3.53;;
60478;SDS011;46321;48.398;11.754;2024-02-16T13:54:24;5.15;;;3.05;;
60478;SDS011;46321;48.398;11.754;2024-02-16T13:56:49;5.65;;;3.40;;
60478;SDS011;46321;48.398;11.754;2024-02-16T13:59:15;6.13;;;3.73;;
60478;SDS011;46321;48.398;11.754;2024-02-16T14:01:40;5.72;;;2.92;;
60478;SDS011;46321;48.398;11.754;2024-02-16T14:04:05;5.00;;;3.30;;
60478;SDS011;46321;48.398;11.754;2024-02-16T14:06:31;4.50;;;2.92;;
60478;SDS011;46321;48.398;11.754;2024-02-16T14:08:56;3.58;;;3.08;;
60478;SDS011;46321;48.398;11.754;2024-02-16T14:11:22;4.97;;;3.20;;
60478;SDS011;46321;48.398;11.754;2024-02-16T14:13:47;4.43;;;3.00;;
60478;SDS011;46321;48.398;11.754;2024-02-16T14:16:13;4.15;;;3.30;;
60478;SDS011;46321;48.398;11.754;2024-02-16T14:18:38;4.78;;;3.30;;